Saugus, California
Current Conditions -  °F | °C
As of 12:56 PM on Sunday 23 Nov 2014 (Local Time) from KWJF Reporting Station
Clear Clear  
Wind Chill: 63°   Ceiling: Unl
Heat Index: 63°   Visibility: 10mi
Dew Point: 17°   Wind: 15mph
Humidity: 17%   Direction: 50°NE
Pressure: 30.25"   Gusts: NA
Location:  34.513°N, 118.402°W
Report Text: KWJF 232056Z 05013KT 10SM CLR 17/M08 A3025 RMK AO2 SLP239 T01721083 56017
Loading
Personal Weather Stations






























Interactive Weather Map New forecast layout! Learn more

10-Day Weather Forecast

Advertisements
Track Severe Weather on mobile